Carl Junction, MO (64834)

9:42 PM CDT on July 04, 2015 (GMT -0500)
Country Side Estates | | Change Station
CLOSE
Current Station
Personal Weather Station
Location: Webb City, MO
Elevation: 968 ft
Nearby Weather Stations

Elev 968 ft 37.16 °N, 94.48 °W | Updated 13 minutes ago

Clear
Clear
76.8 °F
Feels Like 78 °F
N
2.2
Wind Variable Wind from ESE

Today
High -- | Low -- °F
--% Chance of Precip.
Yesterday
High -- | Low -- °F
Precip. -- in
6:03 AM 8:41 PM
Waning Gibbous, 88% visible
Pressure 29.92 in
Visibility 7.0 miles
Clouds Clear
Heat Index 78 °F
Dew Point 68 °F
Humidity 73%
Rainfall 0.00 in
Snow Depth Not available.
UV 0 out of 12
Pollen 3.60 out of 12
Air Quality Not available.
Flu Activity Not available.
METAR KJLN 050153Z 10004KT 7SM CLR 25/19 A2995 RMK AO2 SLP132 T02500194

More Conditions Fewer Conditions

Pressure 29.92 in
Visibility 7.0 miles
Clouds Clear
Heat Index 78 °F
Dew Point 68 °F
Humidity 73%
Rainfall 0.00 in
Snow Depth Not available.
UV 0 out of 12
Pollen 3.60 out of 12
Air Quality Not available.
Flu Activity Not available.
METAR KJLN 050153Z 10004KT 7SM CLR 25/19 A2995 RMK AO2 SLP132 T02500194

More Conditions Fewer Conditions

10-Day Weather Forecast

×

Almanac

Astronomy

Jul. 04, 2015 Rise Set
Actual Time
Civil Twilight
Nautical Twilight
Astronomical Twilight
Moon
Length of Visible Light
Length of Day
Tomorrow will be .
, % of the Moon is Illuminated

Today's Extremes

State Highs State Lows

Community

WunderPhotos

Upload Photos

1,835,172 photos uploaded!

WunderBlogs® & News

Nearby

Air Quality

  Air Quality AQ Index Pollutant
Not available.

Snow Depth

Station Depth Elevation

Earthquake Activity

City Distance Mag. Time & Date
Minimum magnitude displayed is 2.5.

Coastal Water Temperatures

Place Temperature

Stations

Nearby Weather Stations

Station Location Temp. Windchill Dew Point Humidity Wind Precip. Elev Updated Type